createdAt,value
2022-12-18T00:05:09.719Z,86
2022-12-18T00:34:29.075Z,86
2022-12-18T01:03:46.825Z,87
2022-12-18T01:33:04.094Z,86
2022-12-18T02:02:24.199Z,86
2022-12-18T02:31:31.477Z,86
2022-12-18T03:00:41.285Z,86
2022-12-18T03:29:49.821Z,85
2022-12-18T03:58:53.297Z,85
2022-12-18T04:28:00.758Z,85
2022-12-18T04:57:15.416Z,86
2022-12-18T05:25:57.225Z,86
2022-12-18T05:55:01.298Z,85
2022-12-18T06:24:17.303Z,85
2022-12-18T06:53:04.064Z,85
2022-12-18T07:21:55.050Z,86
2022-12-18T07:51:03.339Z,84
2022-12-18T08:20:13.279Z,85
2022-12-18T08:49:18.532Z,85
2022-12-18T09:18:27.404Z,83
2022-12-18T09:47:34.574Z,84
2022-12-18T10:16:46.122Z,85
2022-12-18T10:45:57.416Z,87
2022-12-18T11:14:48.234Z,87
2022-12-18T11:43:48.940Z,82
2022-12-18T12:13:00.958Z,84
2022-12-18T12:42:16.016Z,83
2022-12-18T13:10:59.262Z,85
2022-12-18T13:40:03.252Z,85
2022-12-18T14:09:20.460Z,84
2022-12-18T14:37:59.214Z,83
2022-12-18T15:07:10.915Z,82
2022-12-18T15:36:27.509Z,83
2022-12-18T16:05:03.589Z,84
2022-12-18T16:34:10.913Z,84
2022-12-18T17:03:15.585Z,84
2022-12-18T17:32:02.237Z,85
2022-12-18T18:01:05.938Z,85
2022-12-18T18:29:59.206Z,85
2022-12-18T18:59:10.083Z,85
2022-12-18T19:28:23.220Z,86
2022-12-18T19:57:11.767Z,85
2022-12-18T20:25:54.820Z,87
2022-12-18T20:55:01.320Z,88
2022-12-18T21:23:44.333Z,87
2022-12-18T21:52:53.691Z,88
2022-12-18T22:22:07.189Z,87
2022-12-18T22:51:08.290Z,90
2022-12-18T23:20:16.301Z,89
2022-12-18T23:49:02.766Z,90
